Time;durP1;ratioP1;P1;durP2;ratioP2;P2;SDS_P1;SDS_P2;PMS_P1;PMS_P2;Temp;Humidity;BMP_temperature;BMP_pressure;BME280_temperature;BME280_humidity;BME280_pressure;Samples;Min_cycle;Max_cycle;Signal;HPM_P1;HPM_P2
2022/06/08 00:02:12;;;;;;;1.43;1.17;;;;;;;13.82;100.00;96495.53;5042602;28;20309;-54
2022/06/08 00:04:38;;;;;;;1.60;1.40;;;;;;;13.81;100.00;96496.56;5069496;28;20221;-53
2022/06/08 00:07:06;;;;;;;2.07;1.80;;;;;;;13.78;100.00;96492.38;5060063;28;20302;-52
2022/06/08 00:09:36;;;;;;;4.93;1.50;;;;;;;13.76;100.00;96494.41;5054971;28;20295;-51
2022/06/08 00:12:04;;;;;;;7.27;1.53;;;;;;;13.72;100.00;96487.75;5054562;28;20294;-52
2022/06/08 00:14:30;;;;;;;3.57;1.50;;;;;;;13.72;100.00;96495.72;5059098;28;20253;-55
2022/06/08 00:16:57;;;;;;;2.80;1.83;;;;;;;13.69;100.00;96489.91;5054634;28;20266;-56
2022/06/08 00:19:24;;;;;;;4.67;1.80;;;;;;;13.65;100.00;96492.06;5057113;28;20211;-52
2022/06/08 00:21:51;;;;;;;2.80;1.70;;;;;;;13.71;100.00;96487.94;5062881;28;20295;-52
2022/06/08 00:24:19;;;;;;;1.50;1.40;;;;;;;13.64;100.00;96482.44;5062184;28;20234;-51
2022/06/08 00:26:47;;;;;;;3.73;2.00;;;;;;;13.62;100.00;96484.44;5060704;28;20214;-51
2022/06/08 00:29:14;;;;;;;2.70;1.43;;;;;;;13.57;100.00;96486.75;5056680;28;20687;-51
2022/06/08 00:31:41;;;;;;;1.90;1.30;;;;;;;13.58;100.00;96477.78;5063224;28;20576;-51
2022/06/08 00:34:07;;;;;;;2.50;1.50;;;;;;;13.63;100.00;96478.13;5063579;28;20648;-51
2022/06/08 00:36:36;;;;;;;2.30;1.20;;;;;;;13.59;100.00;96474.13;5064221;28;20279;-51
2022/06/08 00:39:03;;;;;;;1.97;1.30;;;;;;;13.60;100.00;96472.31;5064823;28;20235;-51
2022/06/08 00:41:42;;;;;;;2.37;1.63;;;;;;;13.56;100.00;96469.16;5065703;28;20262;-51
2022/06/08 00:44:14;;;;;;;3.33;1.50;;;;;;;13.54;100.00;96465.81;5067641;28;20269;-51
2022/06/08 00:46:40;;;;;;;2.93;1.70;;;;;;;13.51;100.00;96465.31;5062891;28;20203;-51
2022/06/08 00:49:17;;;;;;;3.17;1.40;;;;;;;13.49;100.00;96457.53;5048445;28;20199;-51
2022/06/08 00:51:43;;;;;;;5.53;1.80;;;;;;;13.42;100.00;96445.91;5045244;28;20751;-50
2022/06/08 00:54:15;;;;;;;2.23;1.40;;;;;;;13.45;100.00;96462.34;5044195;28;20289;-51
2022/06/08 00:56:46;;;;;;;3.30;1.63;;;;;;;13.38;100.00;96442.75;5067987;28;20207;-51
2022/06/08 00:59:14;;;;;;;3.00;1.57;;;;;;;13.39;100.00;96451.56;5053973;28;20602;-52
2022/06/08 01:01:41;;;;;;;2.27;1.80;;;;;;;13.33;100.00;96441.56;5054587;28;20328;-51
2022/06/08 01:04:11;;;;;;;2.40;1.60;;;;;;;13.31;100.00;96443.56;5066266;28;20508;-51
2022/06/08 01:06:38;;;;;;;1.40;1.20;;;;;;;13.26;100.00;96440.56;5055400;28;20233;-51
2022/06/08 01:09:04;;;;;;;2.70;1.47;;;;;;;13.23;100.00;96435.59;5053773;28;20314;-52
2022/06/08 01:11:38;;;;;;;2.37;1.40;;;;;;;13.25;100.00;96441.59;5055481;28;20595;-51
2022/06/08 01:14:10;;;;;;;1.70;1.50;;;;;;;13.20;100.00;96435.94;5058282;28;20218;-51
2022/06/08 01:16:41;;;;;;;3.67;1.70;;;;;;;13.21;100.00;96432.28;5051629;28;20196;-52
2022/06/08 01:19:10;;;;;;;2.07;1.67;;;;;;;13.15;100.00;96425.78;5053204;28;20303;-51
2022/06/08 01:21:53;;;;;;;3.00;1.50;;;;;;;13.13;100.00;96432.25;5058014;28;20227;-50
2022/06/08 01:24:20;;;;;;;2.77;1.50;;;;;;;13.12;100.00;96422.63;5057954;28;20203;-51
2022/06/08 01:27:04;;;;;;;3.40;1.90;;;;;;;13.15;100.00;96423.13;5057288;28;20294;-51
2022/06/08 01:29:36;;;;;;;1.40;1.30;;;;;;;13.15;100.00;96419.63;5057961;28;20245;-52
2022/06/08 01:32:07;;;;;;;1.77;1.57;;;;;;;13.15;100.00;96415.16;5058085;28;20290;-51
2022/06/08 01:34:40;;;;;;;4.77;1.57;;;;;;;13.10;100.00;96414.00;5057364;28;20286;-51
2022/06/08 01:37:22;;;;;;;3.10;1.73;;;;;;;13.11;100.00;96421.78;5057266;28;20281;-51
2022/06/08 01:39:59;;;;;;;1.33;1.23;;;;;;;13.05;100.00;96411.81;5057589;28;20298;-51
2022/06/08 01:42:46;;;;;;;2.17;1.50;;;;;;;13.05;100.00;96410.97;5057487;28;20716;-51
2022/06/08 01:45:33;;;;;;;1.57;1.33;;;;;;;13.05;100.00;96421.59;5054590;28;20338;-51
2022/06/08 01:48:15;;;;;;;1.57;1.47;;;;;;;12.96;100.00;96413.63;5049701;28;20203;-51
2022/06/08 01:50:55;;;;;;;2.00;1.57;;;;;;;12.92;100.00;96404.34;5057125;28;20282;-50
2022/06/08 01:53:32;;;;;;;1.53;1.43;;;;;;;12.92;100.00;96411.47;5045016;28;20246;-52
2022/06/08 01:56:03;;;;;;;1.63;1.53;;;;;;;12.88;100.00;96405.66;5061620;28;20214;-51
2022/06/08 01:58:40;;;;;;;1.60;1.50;;;;;;;12.83;100.00;96404.47;5079930;28;20191;-51
2022/06/08 02:01:18;;;;;;;1.70;1.60;;;;;;;12.87;100.00;96400.50;5071281;28;20204;-51
2022/06/08 02:03:57;;;;;;;2.03;1.70;;;;;;;12.88;100.00;96399.50;5067899;28;20226;-51
2022/06/08 02:06:29;;;;;;;2.60;1.50;;;;;;;12.82;100.00;96386.91;5058802;28;20614;-51
2022/06/08 02:09:02;;;;;;;1.93;1.50;;;;;;;12.81;100.00;96398.50;5057870;28;20191;-51
2022/06/08 02:11:33;;;;;;;3.13;1.73;;;;;;;12.69;100.00;96384.69;5058930;28;20199;-51
2022/06/08 02:14:03;;;;;;;2.10;1.77;;;;;;;12.71;100.00;96388.03;5057949;28;20203;-52
2022/06/08 02:16:35;;;;;;;1.63;1.53;;;;;;;12.77;100.00;96392.69;5057965;28;20606;-52
2022/06/08 02:19:05;;;;;;;2.53;1.73;;;;;;;12.82;100.00;96386.91;5044534;28;20310;-51
2022/06/08 02:21:35;;;;;;;1.53;1.43;;;;;;;12.85;100.00;96387.41;5077935;28;20228;-51
2022/06/08 02:24:10;;;;;;;2.73;1.50;;;;;;;12.84;100.00;96383.06;5049571;28;20717;-51
2022/06/08 02:26:40;;;;;;;3.57;1.67;;;;;;;12.93;100.00;96390.06;5057249;28;20238;-50
2022/06/08 02:29:11;;;;;;;1.63;1.40;;;;;;;12.96;100.00;96386.25;5074320;28;20275;-50
2022/06/08 02:31:42;;;;;;;2.10;1.40;;;;;;;12.92;100.00;96385.75;5077473;28;20324;-51
2022/06/08 02:34:29;;;;;;;3.67;1.70;;;;;;;12.97;100.00;96387.91;5058363;28;20306;-51
2022/06/08 02:37:00;;;;;;;1.10;1.10;;;;;;;13.00;100.00;96392.06;5056768;28;20545;-51
2022/06/08 02:39:34;;;;;;;1.40;1.20;;;;;;;13.04;100.00;96388.91;5058003;28;20290;-52
2022/06/08 02:42:07;;;;;;;2.03;1.50;;;;;;;13.03;100.00;96387.25;5059268;28;20302;-50
2022/06/08 02:44:34;;;;;;;1.73;1.60;;;;;;;13.04;100.00;96385.44;5059166;28;20235;-52
2022/06/08 02:47:04;;;;;;;3.23;1.70;;;;;;;13.04;100.00;96380.94;5060533;28;20230;-51
2022/06/08 02:49:34;;;;;;;2.80;1.80;;;;;;;13.01;100.00;96383.94;5068558;28;20194;-50
2022/06/08 02:52:04;;;;;;;2.17;1.77;;;;;;;12.97;100.00;96383.41;5080116;28;20199;-50
2022/06/08 02:54:32;;;;;;;1.43;1.33;;;;;;;12.96;100.00;96376.47;5079325;28;20179;-51
2022/06/08 02:57:03;;;;;;;1.43;1.37;;;;;;;12.96;100.00;96375.63;5079892;28;20215;-50
2022/06/08 02:59:38;;;;;;;2.30;1.80;;;;;;;12.93;100.00;96371.47;5079102;28;20179;-51
2022/06/08 03:02:10;;;;;;;2.30;1.70;;;;;;;12.92;100.00;96361.88;5065325;28;20226;-52
2022/06/08 03:04:45;;;;;;;2.00;1.87;;;;;;;12.88;100.00;96363.19;5077016;28;20183;-51
2022/06/08 03:07:18;;;;;;;6.57;1.80;;;;;;;12.86;100.00;96354.53;5072841;28;20180;-50
2022/06/08 03:09:49;;;;;;;3.67;1.50;;;;;;;12.84;100.00;96361.84;5076370;28;20187;-51
2022/06/08 03:12:20;;;;;;;1.70;1.60;;;;;;;12.82;100.00;96363.81;5079700;28;20171;-50
2022/06/08 03:14:48;;;;;;;2.40;1.60;;;;;;;12.82;100.00;96357.72;5058789;28;20283;-51
2022/06/08 03:17:18;;;;;;;1.80;1.60;;;;;;;12.81;100.00;96354.22;5055055;28;20211;-51
2022/06/08 03:19:45;;;;;;;1.60;1.50;;;;;;;12.77;100.00;96358.19;5055937;28;20287;-51
2022/06/08 03:22:16;;;;;;;3.50;1.90;;;;;;;12.75;100.00;96351.41;5055680;28;20239;-51
2022/06/08 03:24:45;;;;;;;3.90;1.70;;;;;;;12.72;100.00;96349.88;5045283;28;20282;-51
2022/06/08 03:27:13;;;;;;;4.60;1.63;;;;;;;12.70;100.00;96346.56;5055769;28;20203;-51
2022/06/08 03:29:40;;;;;;;2.57;1.50;;;;;;;12.72;100.00;96341.09;5055543;28;20290;-51
2022/06/08 03:32:07;;;;;;;1.90;1.70;;;;;;;12.68;100.00;96348.53;5054050;28;20294;-51
2022/06/08 03:34:34;;;;;;;3.30;2.57;;;;;;;12.69;100.00;96352.88;5043964;28;20203;-51
2022/06/08 03:37:01;;;;;;;7.00;1.57;;;;;;;12.67;100.00;96341.59;5055538;28;20606;-51
2022/06/08 03:39:28;;;;;;;3.03;1.70;;;;;;;12.65;100.00;96340.91;5055242;28;20806;-51
2022/06/08 03:41:57;;;;;;;1.60;1.40;;;;;;;12.67;100.00;96348.72;5055285;28;20238;-52
2022/06/08 03:44:25;;;;;;;1.73;1.50;;;;;;;12.65;100.00;96350.69;5054198;28;20253;-50
2022/06/08 03:46:54;;;;;;;1.60;1.50;;;;;;;12.66;100.00;96344.41;5054820;28;20290;-51
2022/06/08 03:49:22;;;;;;;3.83;1.67;;;;;;;12.71;100.00;96345.59;5044553;28;20235;-50
2022/06/08 03:51:50;;;;;;;1.97;1.77;;;;;;;12.65;100.00;96340.91;5052967;28;20215;-51
2022/06/08 03:54:21;;;;;;;1.67;1.57;;;;;;;12.71;100.00;96332.31;5054851;28;20217;-51
2022/06/08 03:56:51;;;;;;;1.53;1.43;;;;;;;12.69;100.00;96331.63;5054866;28;20325;-51
2022/06/08 03:59:18;;;;;;;3.47;1.70;;;;;;;12.68;100.00;96332.63;5055205;28;20270;-52
2022/06/08 04:01:47;;;;;;;1.70;1.60;;;;;;;12.68;100.00;96327.31;5043541;28;20287;-51
2022/06/08 04:04:13;;;;;;;2.00;1.80;;;;;;;12.69;100.00;96330.81;5055307;28;20207;-51
2022/06/08 04:06:40;;;;;;;1.90;1.80;;;;;;;12.67;100.00;96317.72;5055233;28;20542;-51
2022/06/08 04:09:07;;;;;;;3.50;1.90;;;;;;;12.68;100.00;96313.25;5055585;28;20211;-50
2022/06/08 04:11:34;;;;;;;2.30;1.60;;;;;;;12.75;100.00;96308.94;5053418;28;20269;-51
2022/06/08 04:14:04;;;;;;;1.60;1.50;;;;;;;12.84;100.00;96308.78;5055156;28;20294;-51
2022/06/08 04:16:33;;;;;;;2.07;1.87;;;;;;;12.98;100.00;96310.78;5060973;28;20191;-51
2022/06/08 04:19:02;;;;;;;3.20;1.63;;;;;;;13.11;100.00;96312.94;5071728;28;20195;-51
2022/06/08 04:21:28;;;;;;;2.27;1.80;;;;;;;13.22;100.00;96302.00;5063110;28;20195;-50
2022/06/08 04:23:58;;;;;;;2.90;1.40;;;;;;;13.44;100.00;96303.13;5068545;28;20447;-51
2022/06/08 04:26:27;;;;;;;3.30;1.77;;;;;;;13.67;100.00;96298.78;5054770;28;20199;-51
2022/06/08 04:28:54;;;;;;;2.37;1.87;;;;;;;14.02;100.00;96294.81;5046688;28;20263;-51
2022/06/08 04:31:21;;;;;;;1.73;1.63;;;;;;;14.48;100.00;96294.94;5054724;28;20301;-51
2022/06/08 04:33:47;;;;;;;1.90;1.80;;;;;;;14.62;100.00;96292.38;5054150;28;20206;-51
2022/06/08 04:36:15;;;;;;;2.03;1.80;;;;;;;15.02;97.58;96287.75;5053774;28;20289;-50
2022/06/08 04:38:42;;;;;;;2.47;1.60;;;;;;;15.01;97.80;96280.75;5053832;28;20203;-51
2022/06/08 04:41:09;;;;;;;1.80;1.70;;;;;;;15.16;97.67;96284.31;5062819;28;20292;-51
2022/06/08 04:43:37;;;;;;;1.30;1.30;;;;;;;15.30;96.76;96281.66;5074319;28;20242;-52
2022/06/08 04:46:04;;;;;;;1.90;1.80;;;;;;;15.48;96.02;96278.63;5077489;28;20216;-51
2022/06/08 04:48:33;;;;;;;1.90;1.60;;;;;;;15.60;96.21;96282.56;5064397;28;20217;-51
2022/06/08 04:51:01;;;;;;;2.20;1.40;;;;;;;15.68;94.60;96279.81;5059719;28;20199;-50
2022/06/08 04:53:29;;;;;;;3.20;2.10;;;;;;;15.65;95.33;96269.53;5058104;28;20199;-51
2022/06/08 04:55:56;;;;;;;2.33;2.10;;;;;;;15.84;94.74;96274.28;5061287;28;20309;-51
2022/06/08 04:58:26;;;;;;;2.10;1.90;;;;;;;15.79;94.39;96275.84;5060869;28;20698;-51
2022/06/08 05:00:56;;;;;;;2.53;2.30;;;;;;;15.65;95.49;96269.53;5060963;28;20199;-51
2022/06/08 05:03:24;;;;;;;2.10;2.00;;;;;;;15.52;97.27;96271.16;5065352;28;20220;-52
2022/06/08 05:05:51;;;;;;;4.73;2.17;;;;;;;15.31;99.13;96269.16;5060820;28;20207;-51
2022/06/08 05:08:20;;;;;;;2.27;2.10;;;;;;;15.23;100.00;96278.03;5078774;28;20301;-51
2022/06/08 05:10:50;;;;;;;5.40;2.23;;;;;;;15.40;99.21;96276.91;5080152;28;20286;-51
2022/06/08 05:13:18;;;;;;;2.90;2.60;;;;;;;15.55;99.87;96286.78;5080729;28;20217;-50
2022/06/08 05:15:46;;;;;;;3.90;2.15;;;;;;;15.75;98.49;96286.06;5080774;28;20306;-50
2022/06/08 05:18:14;;;;;;;3.40;2.55;;;;;;;15.92;98.86;96281.38;5066280;28;20224;-50
2022/06/08 05:20:43;;;;;;;3.60;2.25;;;;;;;16.06;97.86;96285.03;5054856;28;20235;-51
2022/06/08 05:23:13;;;;;;;2.28;2.08;;;;;;;16.36;95.75;96278.66;5039672;28;20289;-52
2022/06/08 05:25:42;;;;;;;3.17;2.80;;;;;;;16.51;95.66;96276.75;5056211;28;20195;-51
2022/06/08 05:28:11;;;;;;;2.47;2.28;;;;;;;16.68;94.25;96275.56;5060661;28;20722;-51
2022/06/08 05:30:40;;;;;;;3.78;2.58;;;;;;;16.79;92.96;96283.03;5060748;28;20218;-51
2022/06/08 05:33:10;;;;;;;6.07;2.50;;;;;;;16.99;91.55;96279.75;5060483;28;20245;-50
2022/06/08 05:35:40;;;;;;;2.97;2.50;;;;;;;17.27;91.39;96272.59;5043315;28;20214;-51
2022/06/08 05:38:08;;;;;;;3.63;2.30;;;;;;;17.54;90.19;96274.44;5060725;28;20567;-51
2022/06/08 05:40:37;;;;;;;2.80;2.22;;;;;;;17.78;86.63;96279.34;5060520;28;20289;-51
2022/06/08 05:43:05;;;;;;;2.85;2.35;;;;;;;17.89;85.89;96273.44;5060031;28;20227;-52
2022/06/08 05:45:39;;;;;;;2.88;2.10;;;;;;;18.18;86.56;96271.53;5060779;28;20298;-51
2022/06/08 05:48:06;;;;;;;3.70;2.17;;;;;;;18.44;85.01;96268.97;5060298;28;20206;-51
2022/06/08 05:50:34;;;;;;;2.83;2.40;;;;;;;18.51;84.04;96267.19;5060304;28;20590;-51
2022/06/08 05:53:02;;;;;;;4.15;2.38;;;;;;;18.69;83.31;96261.25;5060768;28;20242;-51
2022/06/08 05:55:33;;;;;;;3.45;2.38;;;;;;;18.76;83.61;96259.41;5059780;28;20221;-51
2022/06/08 05:58:00;;;;;;;2.63;2.15;;;;;;;18.99;81.70;96259.03;5056923;28;20210;-52
2022/06/08 06:00:30;;;;;;;4.07;2.30;;;;;;;19.27;78.62;96251.63;5057379;28;20207;-52
2022/06/08 06:02:58;;;;;;;2.30;2.05;;;;;;;19.40;78.64;96243.59;5056958;28;20667;-52
2022/06/08 06:05:30;;;;;;;2.20;2.10;;;;;;;19.49;78.41;96245.03;5057349;28;20275;-51
2022/06/08 06:07:57;;;;;;;3.30;1.90;;;;;;;19.93;78.13;96252.41;5057131;28;20301;-51
2022/06/08 06:10:27;;;;;;;3.28;1.88;;;;;;;20.10;75.74;96244.69;5056746;28;20199;-51
2022/06/08 06:12:54;;;;;;;3.33;1.50;;;;;;;20.27;76.42;96238.66;5057325;28;20582;-51
2022/06/08 06:15:23;;;;;;;3.10;1.80;;;;;;;20.50;74.14;96246.22;5056068;28;20294;-52
2022/06/08 06:17:50;;;;;;;4.78;2.15;;;;;;;20.48;72.80;96256.34;5056871;28;20225;-52
2022/06/08 06:20:22;;;;;;;4.07;2.50;;;;;;;20.77;72.88;96249.56;5057229;28;20308;-52
2022/06/08 06:22:50;;;;;;;3.58;2.60;;;;;;;21.05;70.38;96251.88;5057136;28;20280;-51
2022/06/08 06:25:19;;;;;;;2.28;1.55;;;;;;;20.94;71.52;96244.53;5056863;28;20210;-52
2022/06/08 06:27:47;;;;;;;3.97;1.63;;;;;;;21.19;70.08;96254.28;5057382;28;20589;-51
2022/06/08 06:30:17;;;;;;;3.30;1.50;;;;;;;21.36;71.44;96248.38;5057238;28;20206;-51
2022/06/08 06:32:45;;;;;;;4.80;1.85;;;;;;;21.55;66.76;96250.88;5055974;28;20218;-51
2022/06/08 06:35:22;;;;;;;1.60;1.50;;;;;;;21.73;67.29;96245.53;5056647;28;20301;-53
2022/06/08 06:37:50;;;;;;;1.95;1.73;;;;;;;21.93;67.77;96252.63;5057260;28;20292;-53
2022/06/08 06:40:18;;;;;;;4.88;2.00;;;;;;;21.92;66.50;96245.59;5071157;28;20242;-52
2022/06/08 06:42:46;;;;;;;4.80;1.90;;;;;;;21.80;64.37;96246.28;5072037;28;20230;-52
2022/06/08 06:45:13;;;;;;;3.75;1.60;;;;;;;21.76;65.46;96238.88;5074123;28;20231;-52
2022/06/08 06:47:41;;;;;;;2.13;1.48;;;;;;;21.87;68.64;96234.63;5059751;28;20234;-51
2022/06/08 06:50:10;;;;;;;2.70;1.38;;;;;;;22.12;66.57;96244.31;5061403;28;20290;-52
2022/06/08 06:52:40;;;;;;;2.28;1.55;;;;;;;22.25;64.83;96232.53;5063747;28;20655;-52
2022/06/08 06:55:12;;;;;;;1.52;1.35;;;;;;;22.23;62.86;96227.41;5063086;28;20267;-51
2022/06/08 06:57:38;;;;;;;3.75;1.58;;;;;;;22.23;64.32;96229.28;5061485;28;20198;-52
2022/06/08 07:00:07;;;;;;;4.78;1.48;;;;;;;22.39;65.94;96222.47;5056733;28;20292;-51
2022/06/08 07:02:35;;;;;;;1.90;1.10;;;;;;;22.28;62.80;96221.34;5056772;28;20282;-52
2022/06/08 07:05:02;;;;;;;2.72;1.50;;;;;;;22.44;62.52;96215.31;5056321;28;20227;-51
2022/06/08 07:07:29;;;;;;;2.60;1.45;;;;;;;22.53;60.07;96211.25;5056934;28;20286;-51
2022/06/08 07:09:57;;;;;;;2.42;0.95;;;;;;;22.66;60.05;96213.78;5061244;28;20272;-52
2022/06/08 07:12:24;;;;;;;1.33;1.20;;;;;;;22.89;62.04;96201.44;5070643;28;20239;-52
2022/06/08 07:14:52;;;;;;;2.70;1.40;;;;;;;23.16;59.47;96191.91;5070570;28;20290;-51
2022/06/08 07:17:19;;;;;;;1.85;1.48;;;;;;;23.60;58.15;96193.22;5067803;28;20214;-51
2022/06/08 07:19:45;;;;;;;4.63;1.30;;;;;;;23.81;59.70;96189.13;5074593;28;20240;-51
2022/06/08 07:22:12;;;;;;;2.40;1.20;;;;;;;23.64;56.27;96179.03;5075730;28;20234;-51
2022/06/08 07:24:41;;;;;;;2.13;1.10;;;;;;;23.91;55.37;96189.34;5069413;28;20263;-50
2022/06/08 07:27:09;;;;;;;1.00;0.90;;;;;;;24.04;52.41;96183.69;5069549;28;20242;-51
2022/06/08 07:29:35;;;;;;;1.85;0.95;;;;;;;23.66;53.35;96176.94;5074094;28;20203;-52
2022/06/08 07:32:04;;;;;;;1.98;1.08;;;;;;;23.62;52.34;96175.75;5073875;28;20213;-52
2022/06/08 07:34:30;;;;;;;2.92;1.05;;;;;;;23.87;53.43;96180.91;5077359;28;20230;-51
2022/06/08 07:36:58;;;;;;;2.40;1.52;;;;;;;23.58;54.77;96169.19;5080314;28;20222;-53
2022/06/08 07:39:26;;;;;;;2.78;1.00;;;;;;;22.96;52.47;96164.41;5070597;28;20211;-51
2022/06/08 07:41:53;;;;;;;2.28;1.08;;;;;;;23.02;54.79;96158.09;5072152;28;20274;-51
2022/06/08 07:44:21;;;;;;;2.78;1.40;;;;;;;22.57;53.99;96166.63;5066604;28;20245;-51
2022/06/08 07:46:48;;;;;;;3.35;1.50;;;;;;;22.80;52.81;96163.22;5070603;28;20242;-52
2022/06/08 07:52:00;;;;;;;2.53;1.10;;;;;;;22.46;55.63;96151.22;5075186;28;20714;-51
2022/06/08 07:54:30;;;;;;;1.23;1.00;;;;;;;22.41;58.31;96159.19;5075485;28;20275;-51
2022/06/08 07:56:57;;;;;;;3.65;1.20;;;;;;;22.50;60.44;96147.03;5074924;28;20296;-52
2022/06/08 07:59:27;;;;;;;2.60;1.02;;;;;;;22.67;55.42;96148.06;5075253;28;20296;-52
2022/06/08 08:01:54;;;;;;;1.95;1.23;;;;;;;22.85;55.81;96143.66;5069468;28;20203;-52
2022/06/08 08:04:22;;;;;;;2.22;1.17;;;;;;;22.81;54.69;96130.63;5068328;28;20313;-51
2022/06/08 08:06:49;;;;;;;3.75;1.13;;;;;;;22.55;53.98;96125.63;5075049;28;20297;-51
2022/06/08 08:09:18;;;;;;;1.58;1.42;;;;;;;22.81;53.21;96127.13;5074637;28;20301;-51
2022/06/08 08:11:46;;;;;;;2.15;1.05;;;;;;;23.22;50.96;96126.22;5054621;28;20570;-52
2022/06/08 08:14:13;;;;;;;2.10;1.08;;;;;;;23.12;55.75;96121.41;5054345;28;20536;-53
2022/06/08 08:16:44;;;;;;;2.25;1.25;;;;;;;23.15;51.15;96126.34;5054969;28;20207;-51
2022/06/08 08:19:11;;;;;;;2.40;1.05;;;;;;;23.23;50.66;96125.16;5041511;28;20291;-51
2022/06/08 08:21:38;;;;;;;5.18;1.58;;;;;;;23.27;49.98;96112.84;5053552;28;20294;-52
2022/06/08 08:24:05;;;;;;;3.35;1.17;;;;;;;22.79;49.21;96115.75;5056285;28;20265;-52
2022/06/08 08:26:34;;;;;;;4.70;1.20;;;;;;;22.99;49.16;96120.81;5056485;28;20290;-52
2022/06/08 08:29:03;;;;;;;1.83;1.10;;;;;;;22.55;50.92;96114.84;5053866;28;20705;-52
2022/06/08 08:31:31;;;;;;;3.55;1.00;;;;;;;22.42;54.48;96120.44;5055090;28;20199;-51
2022/06/08 08:33:59;;;;;;;2.67;1.10;;;;;;;22.86;50.61;96112.94;5054684;28;20210;-51
2022/06/08 08:36:31;;;;;;;3.83;1.63;;;;;;;23.35;49.76;96103.59;5055008;28;20298;-52
2022/06/08 08:38:58;;;;;;;1.27;1.02;;;;;;;23.15;47.32;96106.63;5053716;28;20242;-51
2022/06/08 08:44:25;;;;;;;1.55;0.98;;;;;;;22.87;49.54;96095.72;5054338;28;20296;-51
2022/06/08 08:46:59;;;;;;;1.85;1.20;;;;;;;22.60;51.65;96096.09;5054346;28;20682;-52
2022/06/08 08:49:32;;;;;;;2.47;1.42;;;;;;;22.39;52.59;96093.94;5064995;28;20284;-52
2022/06/08 08:52:02;;;;;;;2.85;1.40;;;;;;;22.36;53.05;96093.56;5073772;28;20670;-52
2022/06/08 08:54:30;;;;;;;3.67;1.08;;;;;;;22.00;54.62;96091.81;5073810;28;20293;-52
2022/06/08 08:57:05;;;;;;;2.58;1.15;;;;;;;21.89;55.50;96088.00;5074518;28;20232;-52
2022/06/08 08:59:32;;;;;;;2.25;0.77;;;;;;;21.66;55.04;96088.69;5091350;28;20214;-52
2022/06/08 09:01:59;;;;;;;3.42;1.20;;;;;;;21.44;55.34;96082.09;5081051;28;20238;-52
2022/06/08 09:04:31;;;;;;;2.75;1.35;;;;;;;21.27;56.88;96089.13;5062494;28;20298;-51
2022/06/08 09:06:58;;;;;;;2.13;1.13;;;;;;;21.26;55.37;96074.03;5064025;28;20276;-51
2022/06/08 09:09:31;;;;;;;1.30;1.20;;;;;;;21.49;56.88;96071.50;5074684;28;20603;-52
2022/06/08 09:12:00;;;;;;;1.98;0.98;;;;;;;21.68;53.27;96070.44;5074066;28;20721;-51
2022/06/08 09:14:46;;;;;;;0.77;0.77;;;;;;;21.93;55.73;96066.84;5074058;28;20639;-52
2022/06/08 09:17:16;;;;;;;1.65;0.80;;;;;;;22.45;52.93;96070.66;5074752;28;20297;-51
2022/06/08 09:19:48;;;;;;;2.78;1.15;;;;;;;22.84;51.98;96074.59;5041685;28;20203;-52
2022/06/08 09:22:21;;;;;;;3.35;1.20;;;;;;;23.13;51.61;96068.28;5054722;28;20207;-52
2022/06/08 09:24:50;;;;;;;1.75;0.88;;;;;;;23.45;51.58;96072.28;5054412;28;20220;-52
2022/06/08 09:27:22;;;;;;;2.38;1.10;;;;;;;23.93;49.70;96080.00;5055077;28;20298;-52
2022/06/08 09:29:53;;;;;;;3.13;1.35;;;;;;;23.67;51.22;96075.97;5054569;28;20265;-51
2022/06/08 09:32:27;;;;;;;1.98;1.10;;;;;;;24.31;48.61;96065.91;5055084;28;20519;-52
2022/06/08 09:35:00;;;;;;;1.98;1.52;;;;;;;24.06;48.08;96062.69;5058201;28;20209;-52
2022/06/08 09:37:27;;;;;;;2.60;1.30;;;;;;;23.89;49.21;96056.41;5057968;28;20710;-52
2022/06/08 09:39:58;;;;;;;1.23;1.10;;;;;;;24.15;46.82;96055.88;5057909;28;20238;-51
2022/06/08 09:42:54;;;;;;;1.23;0.90;;;;;;;24.19;48.36;96051.63;5057994;28;20203;-53
2022/06/08 09:45:41;;;;;;;2.20;0.98;;;;;;;23.98;48.29;96044.19;5051284;28;20253;-53
2022/06/08 09:51:26;;;;;;;3.80;1.50;;;;;;;24.71;44.72;96036.88;5057785;28;20253;-51
2022/06/08 09:53:58;;;;;;;1.02;0.85;;;;;;;24.88;46.26;96034.16;5044165;28;20687;-51
2022/06/08 09:56:32;;;;;;;3.70;1.55;;;;;;;25.02;43.89;96040.06;5057694;28;20290;-53
2022/06/08 09:59:06;;;;;;;5.40;1.52;;;;;;;25.25;44.74;96034.44;5057949;28;20615;-52
2022/06/08 10:01:39;;;;;;;2.30;1.20;;;;;;;25.57;47.17;96032.75;5057453;28;20231;-52
2022/06/08 10:04:34;;;;;;;1.27;0.90;;;;;;;25.70;45.84;96026.13;5057813;28;20293;-52
2022/06/08 10:07:12;;;;;;;2.40;1.20;;;;;;;25.80;41.96;96022.72;5055970;28;20235;-51
2022/06/08 10:09:50;;;;;;;1.63;1.13;;;;;;;25.73;44.30;96012.06;5057511;28;20206;-53
2022/06/08 10:12:23;;;;;;;1.65;1.30;;;;;;;25.92;45.35;96012.56;5068300;28;20730;-52
2022/06/08 10:14:55;;;;;;;1.65;0.95;;;;;;;26.29;43.00;96008.09;5077322;28;20206;-52
2022/06/08 10:17:26;;;;;;;2.70;0.90;;;;;;;26.35;41.05;96001.66;5077068;28;20206;-51
2022/06/08 10:19:59;;;;;;;4.00;1.08;;;;;;;26.08;43.20;95996.19;5045100;28;20246;-52
2022/06/08 10:22:34;;;;;;;1.55;1.00;;;;;;;26.28;43.10;95990.19;5059227;28;20290;-51
2022/06/08 10:25:04;;;;;;;3.00;1.15;;;;;;;26.19;40.53;95992.56;5077400;28;20225;-52
2022/06/08 10:27:33;;;;;;;2.15;1.02;;;;;;;26.09;42.99;95997.03;5072996;28;20377;-51
2022/06/08 10:30:11;;;;;;;1.88;0.90;;;;;;;26.28;43.28;95989.38;5057667;28;20294;-53
2022/06/08 10:32:44;;;;;;;1.30;0.95;;;;;;;26.34;43.37;95989.16;5056972;28;20290;-51
2022/06/08 10:35:19;;;;;;;1.75;1.00;;;;;;;26.10;41.45;95976.97;5058670;28;20565;-51
2022/06/08 10:37:48;;;;;;;3.15;1.23;;;;;;;26.32;39.60;95980.47;5058495;28;20631;-51
2022/06/08 10:40:20;;;;;;;2.95;1.05;;;;;;;26.25;41.94;95977.16;5059425;28;20681;-52
2022/06/08 10:42:50;;;;;;;2.40;0.90;;;;;;;26.47;42.78;95980.59;5060116;28;20211;-51
2022/06/08 10:45:45;;;;;;;1.38;0.63;;;;;;;26.77;39.18;95976.47;5063789;28;20438;-53
2022/06/08 10:48:55;;;;;;;2.90;1.00;;;;;;;26.72;35.29;95978.06;5086345;28;20179;-56
2022/06/08 10:51:43;;;;;;;2.08;1.02;;;;;;;27.03;40.22;95967.47;5073180;28;20187;-51
2022/06/08 10:54:55;;;;;;;2.85;0.95;;;;;;;27.35;37.16;95962.72;5075597;28;20187;-51
2022/06/08 10:57:43;;;;;;;1.98;0.95;;;;;;;27.21;35.37;95961.56;5068878;28;20210;-51
2022/06/08 11:00:24;;;;;;;1.63;1.13;;;;;;;27.29;36.93;95958.38;5064996;28;20218;-52
2022/06/08 11:02:53;;;;;;;1.98;0.90;;;;;;;27.36;34.58;95950.78;5080345;28;20203;-52
2022/06/08 11:05:30;;;;;;;3.75;0.98;;;;;;;27.53;35.35;95950.59;5092402;28;20207;-51
2022/06/08 11:08:17;;;;;;;2.65;1.38;;;;;;;27.69;35.68;95944.97;5082675;28;20195;-52
2022/06/08 11:10:53;;;;;;;2.03;1.10;;;;;;;27.43;36.27;95937.78;5079282;28;20524;-52
2022/06/08 11:13:26;;;;;;;4.18;1.17;;;;;;;27.26;35.62;95947.22;5043363;28;20206;-50
2022/06/08 11:15:56;;;;;;;2.20;1.10;;;;;;;27.04;38.06;95941.94;5056741;28;20306;-52
2022/06/08 11:18:30;;;;;;;2.35;0.90;;;;;;;27.15;35.74;95935.50;5068605;28;20214;-51
2022/06/08 11:21:16;;;;;;;1.42;1.33;;;;;;;27.31;38.13;95939.09;5062353;28;20242;-53
2022/06/08 11:23:47;;;;;;;1.23;1.00;;;;;;;27.38;36.78;95939.69;5048864;28;20223;-52
2022/06/08 11:26:44;;;;;;;1.98;1.20;;;;;;;27.25;40.99;95934.72;5052068;28;20687;-51
2022/06/08 11:29:46;;;;;;;1.45;1.00;;;;;;;27.20;39.88;95939.06;5042383;28;20217;-51
2022/06/08 11:32:54;;;;;;;2.90;1.17;;;;;;;27.19;42.10;95936.59;5037934;28;20290;-52
2022/06/08 11:35:46;;;;;;;3.45;1.45;;;;;;;26.52;38.83;95942.69;5041947;28;20296;-50
2022/06/08 11:38:40;;;;;;;2.55;1.58;;;;;;;26.29;41.01;95932.19;5045334;28;20200;-50
2022/06/08 11:41:34;;;;;;;1.73;1.33;;;;;;;25.79;41.75;95929.00;5044100;28;20211;-51
2022/06/08 11:44:05;;;;;;;3.10;1.73;;;;;;;25.79;42.10;95937.91;5035743;28;20258;-50
2022/06/08 11:46:36;;;;;;;8.23;1.95;;;;;;;25.63;42.79;95926.13;5048482;28;20198;-51
2022/06/08 11:49:37;;;;;;;5.30;1.55;;;;;;;25.45;43.35;95926.44;5042571;28;20197;-51
2022/06/08 11:52:27;;;;;;;1.95;1.13;;;;;;;25.46;42.25;95922.66;5042334;28;20202;-51
2022/06/08 11:55:08;;;;;;;1.58;1.00;;;;;;;25.32;40.19;95937.66;5041037;28;20279;-50
2022/06/08 11:57:36;;;;;;;1.90;0.80;;;;;;;24.96;40.06;95925.56;5044876;28;20200;-50
2022/06/08 12:00:07;;;;;;;1.27;1.15;;;;;;;24.62;41.98;95926.69;5048474;28;20294;-50